Time;durP1;ratioP1;P1;durP2;ratioP2;P2;SDS_P1;SDS_P2;PMS_P1;PMS_P2;Temp;Humidity;BMP_temperature;BMP_pressure;BME280_temperature;BME280_humidity;BME280_pressure;Samples;Min_cycle;Max_cycle;Signal;HPM_P1;HPM_P2
2023/06/25 00:00:22;;;;;;;;;;;;;;;14.65;45.64;96331.63;6215908;28;19928;-66
2023/06/25 00:03:25;;;;;;;;;;;;;;;14.75;45.97;96336.94;6218321;28;19954;-65
2023/06/25 00:06:31;;;;;;;;;;;;;;;14.80;46.07;96329.41;6215322;28;19925;-65
2023/06/25 00:09:34;;;;;;;;;;;;;;;14.65;46.13;96342.22;6206867;28;19921;-65
2023/06/25 00:12:35;;;;;;;;;;;;;;;14.65;46.25;96336.91;6222344;28;19928;-64
2023/06/25 00:15:43;;;;;;;;;;;;;;;14.64;46.67;96337.91;6220008;28;19921;-64
2023/06/25 00:18:47;;;;;;;;;;;;;;;14.71;47.48;96341.66;6202197;28;19925;-65
2023/06/25 00:21:48;;;;;;;;;;;;;;;14.72;47.59;96339.84;6223925;28;19921;-65
2023/06/25 00:24:51;;;;;;;;;;;;;;;14.70;47.56;96339.16;6222975;28;19928;-65
2023/06/25 00:27:57;;;;;;;;;;;;;;;14.76;47.59;96339.44;6222795;28;19921;-63
2023/06/25 00:30:58;;;;;;;;;;;;;;;14.71;47.65;96333.72;6220082;28;19921;-65
2023/06/25 00:34:02;;;;;;;;;;;;;;;14.67;47.75;96332.34;6221989;28;19921;-65
2023/06/25 00:37:16;;;;;;;;;;;;;;;14.72;47.59;96331.91;6245575;28;19921;-64
2023/06/25 00:40:19;;;;;;;;;;;;;;;14.71;47.43;96333.72;6232877;28;20387;-64
2023/06/25 00:43:22;;;;;;;;;;;;;;;14.73;47.39;96331.78;6203348;28;19921;-65
2023/06/25 00:46:28;;;;;;;;;;;;;;;14.81;47.32;96336.38;6215276;28;19917;-64
2023/06/25 00:49:33;;;;;;;;;;;;;;;14.91;47.11;96331.06;6223183;28;20099;-65
2023/06/25 00:52:34;;;;;;;;;;;;;;;14.95;46.65;96337.78;6233202;28;20345;-63
2023/06/25 00:55:38;;;;;;;;;;;;;;;14.99;46.44;96341.81;6245597;28;19921;-65
2023/06/25 00:58:44;;;;;;;;;;;;;;;15.01;46.11;96337.22;6234963;28;19921;-64
2023/06/25 01:01:55;;;;;;;;;;;;;;;14.97;46.00;96334.00;6234787;28;19921;-64
2023/06/25 01:05:15;;;;;;;;;;;;;;;15.01;46.22;96331.94;6248071;28;19925;-65
2023/06/25 01:08:20;;;;;;;;;;;;;;;15.08;45.95;96322.41;6237980;28;19921;-64
2023/06/25 01:11:22;;;;;;;;;;;;;;;15.21;45.46;96312.38;6247394;28;19921;-64
2023/06/25 01:14:27;;;;;;;;;;;;;;;15.36;45.26;96307.47;6247576;28;19920;-65
2023/06/25 01:17:31;;;;;;;;;;;;;;;15.52;44.90;96311.34;6236698;28;19921;-66
2023/06/25 01:20:32;;;;;;;;;;;;;;;15.63;44.67;96317.31;6242602;28;19921;-65
2023/06/25 01:23:36;;;;;;;;;;;;;;;15.72;44.58;96305.03;6233097;28;19928;-65
2023/06/25 01:26:37;;;;;;;;;;;;;;;15.84;44.22;96303.84;6245053;28;19921;-66
2023/06/25 01:29:41;;;;;;;;;;;;;;;15.98;44.01;96299.88;6245488;28;19924;-64
2023/06/25 01:32:44;;;;;;;;;;;;;;;16.21;43.83;96304.78;6226631;28;19922;-65
2023/06/25 01:35:46;;;;;;;;;;;;;;;16.33;43.59;96298.28;6230271;28;19921;-65
2023/06/25 01:38:52;;;;;;;;;;;;;;;16.51;43.36;96301.81;6230196;28;20310;-64
2023/06/25 01:41:53;;;;;;;;;;;;;;;16.64;42.87;96300.59;6222269;28;19925;-66
2023/06/25 01:44:57;;;;;;;;;;;;;;;16.75;42.57;96297.72;6220431;28;20429;-64
2023/06/25 01:47:58;;;;;;;;;;;;;;;16.72;42.77;96295.38;6235613;28;20033;-65
2023/06/25 01:51:02;;;;;;;;;;;;;;;16.74;42.55;96290.75;6228580;28;19917;-65
2023/06/25 01:54:03;;;;;;;;;;;;;;;16.84;42.34;96286.22;6231472;28;19921;-65
2023/06/25 01:57:05;;;;;;;;;;;;;;;16.89;42.38;96289.25;6229514;28;20075;-65
2023/06/25 02:00:10;;;;;;;;;;;;;;;17.04;41.84;96287.72;6236437;28;19920;-65
2023/06/25 02:03:11;;;;;;;;;;;;;;;17.21;41.37;96293.16;6215714;28;19993;-64
2023/06/25 02:06:12;;;;;;;;;;;;;;;17.17;41.61;96286.50;6231590;28;20016;-64
2023/06/25 02:09:16;;;;;;;;;;;;;;;17.23;41.43;96293.84;6256999;28;19921;-64
2023/06/25 02:12:17;;;;;;;;;;;;;;;17.34;41.20;96293.59;6238116;28;20060;-64
2023/06/25 02:15:23;;;;;;;;;;;;;;;17.59;40.84;96296.41;6197448;28;19921;-64
2023/06/25 02:18:28;;;;;;;;;;;;;;;17.78;40.66;96293.56;6197420;28;19921;-63
2023/06/25 02:21:52;;;;;;;;;;;;;;;18.04;40.56;96295.34;6217763;28;19928;-64
2023/06/25 02:24:53;;;;;;;;;;;;;;;18.23;40.26;96294.25;6208389;28;19925;-64
2023/06/25 02:27:56;;;;;;;;;;;;;;;18.32;40.04;96294.13;6203714;28;19921;-65
2023/06/25 02:31:00;;;;;;;;;;;;;;;18.39;40.04;96295.13;6236746;28;20008;-64
2023/06/25 02:34:03;;;;;;;;;;;;;;;18.53;39.63;96296.34;6221092;28;19928;-64
2023/06/25 02:37:13;;;;;;;;;;;;;;;18.72;39.69;96295.22;6218421;28;20039;-65
2023/06/25 02:40:20;;;;;;;;;;;;;;;18.97;39.13;96287.28;6216368;28;19925;-64
2023/06/25 02:43:20;;;;;;;;;;;;;;;19.12;38.83;96290.94;6205242;28;19922;-65
2023/06/25 02:46:26;;;;;;;;;;;;;;;19.23;38.71;96285.28;6214609;28;19921;-68
2023/06/25 02:49:27;;;;;;;;;;;;;;;19.38;38.59;96284.59;6220338;28;19921;-67
2023/06/25 02:52:30;;;;;;;;;;;;;;;19.64;38.32;96277.19;6216432;28;19921;-64
2023/06/25 02:55:31;;;;;;;;;;;;;;;20.00;37.59;96279.47;6219567;28;20080;-69
2023/06/25 02:58:32;;;;;;;;;;;;;;;20.37;37.30;96275.28;6205553;28;20010;-64
2023/06/25 03:01:35;;;;;;;;;;;;;;;20.74;36.72;96276.44;6206541;28;20314;-64
2023/06/25 03:04:36;;;;;;;;;;;;;;;21.01;36.48;96270.56;6202848;28;19967;-67
2023/06/25 03:07:37;;;;;;;;;;;;;;;21.07;36.33;96275.19;6215006;28;19922;-65
2023/06/25 03:10:38;;;;;;;;;;;;;;;21.04;36.07;96278.22;6219074;28;19928;-64
2023/06/25 03:13:44;;;;;;;;;;;;;;;20.98;36.22;96281.63;6220182;28;19925;-64
2023/06/25 03:16:48;;;;;;;;;;;;;;;20.94;36.41;96282.97;6213354;28;19921;-64
2023/06/25 03:19:50;;;;;;;;;;;;;;;20.95;36.44;96290.00;6218213;28;19951;-64
2023/06/25 03:22:51;;;;;;;;;;;;;;;21.11;36.01;96290.88;6214678;28;20552;-64
2023/06/25 03:25:52;;;;;;;;;;;;;;;21.26;35.14;96291.78;6219595;28;19928;-65
2023/06/25 03:28:53;;;;;;;;;;;;;;;20.98;34.89;96300.34;6216517;28;20301;-64
2023/06/25 03:31:54;;;;;;;;;;;;;;;20.54;35.32;96305.47;6199517;28;19928;-64
2023/06/25 03:35:00;;;;;;;;;;;;;;;20.57;37.37;96303.25;6225316;28;19921;-65
2023/06/25 03:38:01;;;;;;;;;;;;;;;19.80;41.07;96304.91;6227814;28;19956;-65
2023/06/25 03:41:02;;;;;;;;;;;;;;;19.13;42.84;96292.59;6243794;28;20318;-66
2023/06/25 03:44:03;;;;;;;;;;;;;;;18.79;43.45;96301.56;6241704;28;19921;-64
2023/06/25 03:47:06;;;;;;;;;;;;;;;18.56;43.79;96306.66;6230423;28;20008;-65
2023/06/25 03:50:08;;;;;;;;;;;;;;;18.23;44.22;96300.44;6199704;28;19921;-64
2023/06/25 03:53:12;;;;;;;;;;;;;;;18.25;44.94;96303.75;6238612;28;19921;-64
2023/06/25 03:56:13;;;;;;;;;;;;;;;18.22;44.91;96304.06;6239037;28;19920;-64
2023/06/25 03:59:14;;;;;;;;;;;;;;;18.33;43.83;96303.78;6236523;28;19936;-64
2023/06/25 04:02:17;;;;;;;;;;;;;;;18.53;43.19;96300.84;6237088;28;20015;-65
2023/06/25 04:05:18;;;;;;;;;;;;;;;18.59;42.38;96294.84;6228165;28;19979;-65
2023/06/25 04:08:19;;;;;;;;;;;;;;;18.83;41.80;96296.75;6217640;28;20059;-65
2023/06/25 04:11:20;;;;;;;;;;;;;;;18.93;41.74;96293.94;6220423;28;19922;-63
2023/06/25 04:14:21;;;;;;;;;;;;;;;19.16;41.04;96286.94;6206733;28;20465;-65
2023/06/25 04:17:26;;;;;;;;;;;;;;;19.58;40.56;96301.91;6219479;28;19921;-65
2023/06/25 04:20:27;;;;;;;;;;;;;;;19.64;39.91;96289.72;6218563;28;19921;-64
2023/06/25 04:23:34;;;;;;;;;;;;;;;19.90;38.22;96284.16;6221384;28;20418;-64
2023/06/25 04:26:34;;;;;;;;;;;;;;;20.07;37.60;96285.78;6242353;28;19917;-65
2023/06/25 04:29:38;;;;;;;;;;;;;;;20.38;36.90;96283.16;6243097;28;19925;-65
2023/06/25 04:32:41;;;;;;;;;;;;;;;20.61;36.88;96277.88;6225851;28;19975;-65
2023/06/25 04:35:42;;;;;;;;;;;;;;;21.05;35.07;96279.88;6225582;28;19921;-65
2023/06/25 04:38:44;;;;;;;;;;;;;;;21.14;35.23;96279.81;6218191;28;19921;-65
2023/06/25 04:41:47;;;;;;;;;;;;;;;21.19;34.29;96274.75;6200979;28;20441;-65
2023/06/25 04:44:48;;;;;;;;;;;;;;;20.96;34.14;96278.28;6217767;28;20300;-64
2023/06/25 04:47:54;;;;;;;;;;;;;;;20.74;34.51;96276.44;6215770;28;19971;-65
2023/06/25 04:50:57;;;;;;;;;;;;;;;20.98;34.05;96276.28;6204305;28;19929;-67
2023/06/25 04:54:01;;;;;;;;;;;;;;;21.08;33.66;96279.53;6186328;28;19917;-65
2023/06/25 04:57:04;;;;;;;;;;;;;;;20.97;33.98;96276.44;6205737;28;20293;-66
2023/06/25 05:00:06;;;;;;;;;;;;;;;21.04;33.74;96278.22;6199333;28;19933;-65
2023/06/25 05:03:07;;;;;;;;;;;;;;;21.12;33.75;96269.31;6220375;28;20053;-65
2023/06/25 05:06:11;;;;;;;;;;;;;;;20.99;33.46;96256.53;6219219;28;19932;-66
2023/06/25 05:09:12;;;;;;;;;;;;;;;20.62;33.89;96258.13;6220129;28;20024;-65
2023/06/25 05:12:16;;;;;;;;;;;;;;;20.32;34.36;96248.25;6220202;28;19944;-66
2023/06/25 05:15:17;;;;;;;;;;;;;;;20.12;35.06;96240.66;6202956;28;20069;-65
2023/06/25 05:18:21;;;;;;;;;;;;;;;20.21;35.14;96235.28;6222636;28;20770;-65
2023/06/25 05:21:22;;;;;;;;;;;;;;;20.42;34.94;96224.84;6202279;28;19921;-66
2023/06/25 05:24:23;;;;;;;;;;;;;;;20.48;34.67;96229.47;6217694;28;19943;-65
2023/06/25 05:27:24;;;;;;;;;;;;;;;20.49;35.08;96220.44;6220690;28;20396;-66
2023/06/25 05:30:25;;;;;;;;;;;;;;;20.37;34.98;96219.19;6217599;28;19995;-65
2023/06/25 05:33:26;;;;;;;;;;;;;;;20.28;35.25;96223.75;6221964;28;19925;-66
2023/06/25 05:36:29;;;;;;;;;;;;;;;20.17;35.26;96216.94;6217921;28;19922;-65
2023/06/25 05:39:32;;;;;;;;;;;;;;;20.03;35.87;96214.19;6216140;28;19922;-65
2023/06/25 05:42:33;;;;;;;;;;;;;;;19.87;36.14;96209.75;6221906;28;19928;-66
2023/06/25 05:45:36;;;;;;;;;;;;;;;19.76;36.06;96202.13;6214332;28;19917;-66
2023/06/25 05:48:44;;;;;;;;;;;;;;;19.60;36.19;96193.16;6196447;28;20307;-66
2023/06/25 05:51:47;;;;;;;;;;;;;;;19.46;36.43;96199.19;6213304;28;19917;-65
2023/06/25 05:54:49;;;;;;;;;;;;;;;19.35;36.67;96194.22;6219532;28;19921;-65
2023/06/25 05:57:53;;;;;;;;;;;;;;;19.20;36.91;96196.78;6219281;28;19924;-65
2023/06/25 06:00:56;;;;;;;;;;;;;;;19.07;36.80;96186.59;6218347;28;19933;-65
2023/06/25 06:03:59;;;;;;;;;;;;;;;19.07;36.88;96186.59;6216071;28;19927;-65
2023/06/25 06:07:03;;;;;;;;;;;;;;;19.18;36.94;96199.59;6213053;28;19921;-65
2023/06/25 06:10:04;;;;;;;;;;;;;;;19.28;37.22;96200.25;6201835;28;20063;-64
2023/06/25 06:13:05;;;;;;;;;;;;;;;19.41;36.36;96196.22;6219672;28;20227;-65
2023/06/25 06:16:06;;;;;;;;;;;;;;;19.63;36.52;96195.47;6215166;28;19925;-66
2023/06/25 06:19:10;;;;;;;;;;;;;;;19.86;36.48;96198.25;6220139;28;20375;-64
2023/06/25 06:22:12;;;;;;;;;;;;;;;20.01;36.46;96195.66;6190498;28;19926;-66
2023/06/25 06:25:16;;;;;;;;;;;;;;;20.00;36.33;96196.69;6202889;28;19921;-65
2023/06/25 06:28:19;;;;;;;;;;;;;;;19.96;37.06;96188.19;6219917;28;19921;-66
2023/06/25 06:31:21;;;;;;;;;;;;;;;19.80;37.21;96192.78;6218095;28;19950;-65
2023/06/25 06:34:24;;;;;;;;;;;;;;;19.81;37.64;96189.09;6217980;28;19921;-64
2023/06/25 06:37:27;;;;;;;;;;;;;;;19.89;37.82;96183.72;6241502;28;19921;-65
2023/06/25 06:40:28;;;;;;;;;;;;;;;20.27;37.17;96183.84;6216743;28;19932;-66
2023/06/25 06:43:32;;;;;;;;;;;;;;;20.74;36.67;96190.88;6220871;28;19976;-66
2023/06/25 06:46:33;;;;;;;;;;;;;;;21.14;36.15;96188.84;6219682;28;19977;-65
2023/06/25 06:49:37;;;;;;;;;;;;;;;21.62;36.16;96178.69;6214207;28;19943;-65
2023/06/25 06:52:38;;;;;;;;;;;;;;;22.21;34.81;96177.78;6230662;28;20424;-64
2023/06/25 06:55:41;;;;;;;;;;;;;;;22.69;34.32;96176.22;6228988;28;19961;-65
2023/06/25 06:58:45;;;;;;;;;;;;;;;22.89;34.15;96175.56;6206281;28;19937;-65
2023/06/25 07:01:48;;;;;;;;;;;;;;;22.84;34.69;96163.56;6204098;28;20389;-65
2023/06/25 07:04:52;;;;;;;;;;;;;;;22.86;34.42;96161.50;6204039;28;19921;-66
2023/06/25 07:07:58;;;;;;;;;;;;;;;22.84;34.80;96160.03;6219222;28;19921;-66
2023/06/25 07:10:59;;;;;;;;;;;;;;;22.79;35.07;96152.59;6209703;28;19928;-65
2023/06/25 07:14:01;;;;;;;;;;;;;;;22.87;34.78;96138.19;6217934;28;20330;-66
2023/06/25 07:17:02;;;;;;;;;;;;;;;22.80;34.64;96148.06;6221819;28;19921;-64
2023/06/25 07:20:03;;;;;;;;;;;;;;;22.92;34.67;96137.63;6204312;28;19928;-66
2023/06/25 07:23:04;;;;;;;;;;;;;;;23.08;34.55;96137.38;6230659;28;20334;-65
2023/06/25 07:26:08;;;;;;;;;;;;;;;23.16;34.13;96134.53;6243360;28;20303;-66
2023/06/25 07:29:11;;;;;;;;;;;;;;;23.27;34.08;96131.31;6244711;28;19922;-65
2023/06/25 07:32:14;;;;;;;;;;;;;;;23.48;33.80;96138.44;6229332;28;19921;-65
2023/06/25 07:35:21;;;;;;;;;;;;;;;23.59;33.67;96129.00;6223364;28;19921;-67
2023/06/25 07:38:24;;;;;;;;;;;;;;;23.58;33.97;96127.34;6219304;28;19929;-65
2023/06/25 07:41:25;;;;;;;;;;;;;;;23.25;34.45;96133.34;6217136;28;20353;-64
2023/06/25 07:44:29;;;;;;;;;;;;;;;23.14;34.70;96123.16;6207686;28;21878;-64
2023/06/25 07:47:35;;;;;;;;;;;;;;;23.19;34.40;96123.41;6213834;28;19921;-67
2023/06/25 07:50:36;;;;;;;;;;;;;;;23.30;34.30;96125.53;6217734;28;20027;-67
2023/06/25 07:53:37;;;;;;;;;;;;;;;23.36;34.42;96117.72;6212323;28;20059;-64
2023/06/25 07:56:40;;;;;;;;;;;;;;;23.41;34.30;96126.00;6211028;28;19927;-64
2023/06/25 07:59:45;;;;;;;;;;;;;;;23.50;34.41;96122.97;6204374;28;19922;-64
2023/06/25 08:02:46;;;;;;;;;;;;;;;23.42;34.52;96119.63;6217350;28;19928;-63
2023/06/25 08:05:50;;;;;;;;;;;;;;;23.20;34.69;96127.75;6213622;28;20414;-66
2023/06/25 08:08:51;;;;;;;;;;;;;;;23.16;34.70;96128.34;6215302;28;20394;-64
2023/06/25 08:11:55;;;;;;;;;;;;;;;23.09;34.98;96129.09;6211235;28;19921;-72
2023/06/25 08:14:58;;;;;;;;;;;;;;;22.98;34.94;96129.66;6211193;28;19969;-68
2023/06/25 08:18:02;;;;;;;;;;;;;;;22.93;34.86;96128.53;6207354;28;20392;-69
2023/06/25 08:21:03;;;;;;;;;;;;;;;22.92;34.80;96132.25;6202647;28;19961;-69
2023/06/25 08:24:06;;;;;;;;;;;;;;;22.65;33.63;96132.06;6213107;28;19925;-65
2023/06/25 08:27:07;;;;;;;;;;;;;;;22.37;33.95;96129.31;6207735;28;19972;-70
2023/06/25 08:30:08;;;;;;;;;;;;;;;22.17;34.33;96131.75;6189273;28;19922;-74
2023/06/25 08:33:10;;;;;;;;;;;;;;;22.04;33.77;96123.56;6211700;28;19924;-64
2023/06/25 08:36:13;;;;;;;;;;;;;;;21.76;33.37;96126.97;6220541;28;20517;-65
2023/06/25 08:39:18;;;;;;;;;;;;;;;21.32;34.43;96130.50;6217947;28;19921;-70
2023/06/25 08:42:24;;;;;;;;;;;;;;;21.26;34.55;96131.22;6228111;28;19921;-66
2023/06/25 08:45:29;;;;;;;;;;;;;;;20.93;34.51;96125.38;6215074;28;19921;-63
2023/06/25 08:48:33;;;;;;;;;;;;;;;20.96;34.42;96117.00;6223071;28;19921;-64
2023/06/25 08:51:35;;;;;;;;;;;;;;;21.11;34.50;96123.19;6230073;28;19921;-65
2023/06/25 08:54:36;;;;;;;;;;;;;;;21.22;34.65;96113.88;6213744;28;20019;-62
2023/06/25 08:57:40;;;;;;;;;;;;;;;20.97;35.27;96116.78;6208964;28;19921;-63
2023/06/25 09:00:41;;;;;;;;;;;;;;;20.87;35.29;96108.22;6213887;28;20032;-68
2023/06/25 09:03:44;;;;;;;;;;;;;;;20.93;35.37;96110.16;6218495;28;20047;-67
2023/06/25 09:06:45;;;;;;;;;;;;;;;21.17;35.35;96095.69;6231595;28;19921;-65
2023/06/25 09:09:53;;;;;;;;;;;;;;;21.78;34.53;96095.47;6229786;28;19990;-65
2023/06/25 09:12:56;;;;;;;;;;;;;;;22.38;33.80;96098.81;6229968;28;20386;-64
2023/06/25 09:16:01;;;;;;;;;;;;;;;22.76;33.85;96087.75;6231544;28;20498;-65
2023/06/25 09:19:14;;;;;;;;;;;;;;;22.88;33.51;96094.28;6238406;28;20337;-67
2023/06/25 09:22:18;;;;;;;;;;;;;;;23.08;33.46;96089.06;6239898;28;19925;-65
2023/06/25 09:25:20;;;;;;;;;;;;;;;23.30;33.44;96077.22;6222421;28;20490;-63
2023/06/25 09:28:25;;;;;;;;;;;;;;;23.29;33.29;96067.50;6215673;28;19976;-65
2023/06/25 09:31:32;;;;;;;;;;;;;;;23.04;34.03;96053.75;6229169;28;19921;-66
2023/06/25 09:34:40;;;;;;;;;;;;;;;22.65;35.10;96046.25;6231454;28;20395;-66
2023/06/25 09:37:41;;;;;;;;;;;;;;;22.55;35.33;96040.38;6238109;28;19927;-65
2023/06/25 09:40:42;;;;;;;;;;;;;;;22.83;35.09;96030.47;6230482;28;20150;-65
2023/06/25 09:43:49;;;;;;;;;;;;;;;23.28;34.00;96036.31;6234124;28;19921;-65
2023/06/25 09:46:58;;;;;;;;;;;;;;;23.60;33.28;96038.50;6232386;28;19921;-65
2023/06/25 09:49:59;;;;;;;;;;;;;;;23.72;33.00;96032.41;6224776;28;20024;-65
2023/06/25 09:53:03;;;;;;;;;;;;;;;23.60;32.97;96033.97;6237082;28;19921;-65
2023/06/25 09:56:06;;;;;;;;;;;;;;;23.55;32.81;96031.06;6236562;28;20465;-66
2023/06/25 09:59:07;;;;;;;;;;;;;;;23.38;32.53;96030.56;6225532;28;20008;-65
2023/06/25 10:02:14;;;;;;;;;;;;;;;23.35;32.93;96030.97;6236490;28;19921;-65
2023/06/25 10:05:17;;;;;;;;;;;;;;;23.27;33.01;96021.25;6229093;28;19921;-66
2023/06/25 10:08:21;;;;;;;;;;;;;;;23.08;33.33;96013.94;6245612;28;20426;-64
2023/06/25 10:11:24;;;;;;;;;;;;;;;22.81;33.70;96013.75;6226608;28;19928;-65
2023/06/25 10:14:38;;;;;;;;;;;;;;;22.46;34.18;96006.72;6220223;28;19928;-66
2023/06/25 10:17:51;;;;;;;;;;;;;;;22.15;34.84;96002.50;6233808;28;20030;-65
2023/06/25 10:20:58;;;;;;;;;;;;;;;21.76;35.29;95993.06;6209051;28;20314;-64
2023/06/25 10:24:03;;;;;;;;;;;;;;;21.36;35.83;95992.63;6200038;28;19921;-66
2023/06/25 10:27:20;;;;;;;;;;;;;;;20.95;36.68;95974.44;6215263;28;20367;-65
2023/06/25 10:30:21;;;;;;;;;;;;;;;20.55;37.81;95971.22;6216545;28;19921;-63
2023/06/25 10:33:22;;;;;;;;;;;;;;;19.82;39.77;95966.53;6218143;28;20068;-65
2023/06/25 10:36:26;;;;;;;;;;;;;;;19.07;42.55;95967.97;6209054;28;19921;-65
2023/06/25 10:39:39;;;;;;;;;;;;;;;18.61;44.89;95965.97;6207047;28;19921;-66
2023/06/25 10:42:43;;;;;;;;;;;;;;;18.25;45.37;95957.56;6215408;28;19944;-64
2023/06/25 10:45:47;;;;;;;;;;;;;;;17.92;45.81;95960.28;6212403;28;19917;-65
2023/06/25 10:48:48;;;;;;;;;;;;;;;17.69;47.03;95951.25;6210464;28;20012;-65
2023/06/25 10:51:50;;;;;;;;;;;;;;;17.37;48.29;95958.22;6215628;28;19928;-72
2023/06/25 10:54:55;;;;;;;;;;;;;;;17.08;48.66;95941.88;6213681;28;20279;-65
2023/06/25 10:57:56;;;;;;;;;;;;;;;16.90;49.59;95950.81;6217728;28;20063;-65
2023/06/25 11:00:58;;;;;;;;;;;;;;;16.69;51.48;95947.69;6216851;28;19921;-65
2023/06/25 11:04:01;;;;;;;;;;;;;;;16.59;50.35;95937.22;6218212;28;20532;-65
2023/06/25 11:07:05;;;;;;;;;;;;;;;16.46;52.31;95937.63;6218037;28;19921;-65
2023/06/25 11:10:07;;;;;;;;;;;;;;;16.34;52.63;95933.59;6217344;28;19921;-65
2023/06/25 11:13:12;;;;;;;;;;;;;;;16.20;53.13;95935.03;6202046;28;20022;-65
2023/06/25 11:16:13;;;;;;;;;;;;;;;16.15;52.24;95935.47;6200147;28;19922;-64
2023/06/25 11:19:17;;;;;;;;;;;;;;;16.10;52.87;95936.94;6214929;28;19921;-65
2023/06/25 11:22:19;;;;;;;;;;;;;;;16.06;52.93;95930.28;6195151;28;19922;-65
2023/06/25 11:25:23;;;;;;;;;;;;;;;15.99;54.18;95930.06;6218530;28;20399;-66
2023/06/25 11:28:26;;;;;;;;;;;;;;;15.88;54.50;95931.19;6213666;28;19918;-66
2023/06/25 11:31:39;;;;;;;;;;;;;;;15.85;57.18;95927.97;6227701;28;20383;-65
2023/06/25 11:34:44;;;;;;;;;;;;;;;15.84;55.37;95921.84;6193204;28;19921;-68
2023/06/25 11:37:46;;;;;;;;;;;;;;;15.77;56.50;95912.88;6176140;28;19933;-66
2023/06/25 11:40:50;;;;;;;;;;;;;;;15.58;56.85;95905.06;6192919;28;19922;-72
2023/06/25 11:43:54;;;;;;;;;;;;;;;15.42;58.07;95903.09;6202697;28;20307;-62
2023/06/25 11:46:58;;;;;;;;;;;;;;;15.30;58.63;95896.38;6207052;28;19921;-66
2023/06/25 11:50:02;;;;;;;;;;;;;;;15.11;59.04;95882.28;6219466;28;19922;-64
2023/06/25 11:53:05;;;;;;;;;;;;;;;15.11;59.04;95871.69;6209966;28;19933;-65
2023/06/25 11:56:06;;;;;;;;;;;;;;;15.04;61.30;95865.34;6206691;28;19921;-63
2023/06/25 11:59:07;;;;;;;;;;;;;;;15.02;60.41;95867.31;6205906;28;20047;-64
2023/06/25 12:02:08;;;;;;;;;;;;;;;15.07;60.30;95864.22;6203488;28;19921;-63
2023/06/25 12:05:09;;;;;;;;;;;;;;;15.05;60.09;95859.06;6203105;28;20400;-65
2023/06/25 12:08:10;;;;;;;;;;;;;;;15.11;59.89;95861.09;6203429;28;19936;-70
2023/06/25 12:11:16;;;;;;;;;;;;;;;15.27;59.92;95861.25;6212577;28;19922;-63
2023/06/25 12:14:17;;;;;;;;;;;;;;;15.53;58.90;95860.44;6212900;28;20301;-63
2023/06/25 12:17:18;;;;;;;;;;;;;;;15.56;58.56;95849.53;6214231;28;19929;-62
2023/06/25 12:20:19;;;;;;;;;;;;;;;15.60;58.29;95842.94;6212832;28;20470;-63
2023/06/25 12:23:20;;;;;;;;;;;;;;;15.64;57.92;95835.50;6218312;28;19921;-61
2023/06/25 12:26:21;;;;;;;;;;;;;;;15.71;58.47;95836.56;6214438;28;19924;-62
2023/06/25 12:29:23;;;;;;;;;;;;;;;15.58;58.68;95834.28;6214540;28;20407;-63
2023/06/25 12:32:26;;;;;;;;;;;;;;;15.61;59.49;95835.81;6214262;28;19924;-62
2023/06/25 12:35:30;;;;;;;;;;;;;;;15.42;60.29;95821.75;6212941;28;20414;-62
2023/06/25 12:38:33;;;;;;;;;;;;;;;15.21;60.66;95826.56;6237697;28;19921;-63
2023/06/25 12:41:34;;;;;;;;;;;;;;;15.15;60.73;95821.91;6213665;28;19921;-62
2023/06/25 12:44:41;;;;;;;;;;;;;;;15.18;60.48;95814.47;6207021;28;19928;-62
2023/06/25 12:47:43;;;;;;;;;;;;;;;15.30;61.02;95808.91;6204961;28;20704;-63
2023/06/25 12:50:44;;;;;;;;;;;;;;;15.36;60.59;95814.44;6232766;28;19928;-62
2023/06/25 12:53:45;;;;;;;;;;;;;;;15.24;60.83;95808.53;6208966;28;19917;-63
2023/06/25 12:56:46;;;;;;;;;;;;;;;15.15;61.29;95798.88;6221236;28;19928;-62
2023/06/25 12:59:47;;;;;;;;;;;;;;;15.12;61.83;95799.19;6212195;28;20446;-62
2023/06/25 13:02:50;;;;;;;;;;;;;;;14.90;62.47;95797.00;6216867;28;20005;-63
2023/06/25 13:05:54;;;;;;;;;;;;;;;14.76;62.82;95793.91;6215192;28;20385;-62
2023/06/25 13:08:59;;;;;;;;;;;;;;;14.69;63.15;95794.66;6211025;28;19921;-62
2023/06/25 13:12:01;;;;;;;;;;;;;;;14.64;63.12;95796.94;6214780;28;19921;-64
2023/06/25 13:15:05;;;;;;;;;;;;;;;14.59;63.04;95792.91;6221412;28;19922;-62
2023/06/25 13:18:08;;;;;;;;;;;;;;;14.52;63.59;95791.03;6219989;28;20379;-63
2023/06/25 13:21:12;;;;;;;;;;;;;;;14.45;63.55;95776.72;6221110;28;19924;-62
2023/06/25 13:24:14;;;;;;;;;;;;;;;14.34;64.17;95781.22;6227616;28;20375;-64
2023/06/25 13:27:19;;;;;;;;;;;;;;;14.07;65.28;95781.28;6212061;28;19925;-63
2023/06/25 13:30:25;;;;;;;;;;;;;;;13.79;66.04;95768.03;6232108;28;19922;-63
2023/06/25 13:33:26;;;;;;;;;;;;;;;13.59;66.60;95762.00;6238597;28;20472;-63
2023/06/25 13:36:29;;;;;;;;;;;;;;;13.43;67.34;95759.97;6236200;28;20011;-63
2023/06/25 13:39:30;;;;;;;;;;;;;;;13.41;68.09;95753.97;6231428;28;19928;-62
2023/06/25 13:42:34;;;;;;;;;;;;;;;13.19;68.69;95749.00;6238829;28;19921;-62
2023/06/25 13:45:35;;;;;;;;;;;;;;;13.08;68.77;95750.03;6222381;28;19922;-63
2023/06/25 13:48:36;;;;;;;;;;;;;;;13.06;68.80;95751.97;6232173;28;20405;-62
2023/06/25 13:51:38;;;;;;;;;;;;;;;13.14;69.22;95743.34;6233752;28;20413;-61
2023/06/25 13:54:39;;;;;;;;;;;;;;;13.04;69.83;95738.91;6215501;28;20100;-63
2023/06/25 13:57:45;;;;;;;;;;;;;;;13.09;70.79;95742.94;6230120;28;19968;-63
2023/06/25 14:00:46;;;;;;;;;;;;;;;13.01;71.34;95741.81;6215859;28;19983;-62
2023/06/25 14:03:50;;;;;;;;;;;;;;;12.98;71.50;95736.84;6221647;28;19921;-63
2023/06/25 14:06:53;;;;;;;;;;;;;;;12.96;72.31;95728.22;6216924;28;20382;-60
2023/06/25 14:09:54;;;;;;;;;;;;;;;12.83;72.75;95732.97;6215811;28;19929;-63
2023/06/25 14:12:58;;;;;;;;;;;;;;;12.82;73.72;95720.72;6217196;28;19935;-63
2023/06/25 14:15:59;;;;;;;;;;;;;;;12.64;73.62;95728.53;6222281;28;19928;-62
2023/06/25 14:19:03;;;;;;;;;;;;;;;12.73;74.52;95724.22;6213831;28;19921;-62
2023/06/25 14:22:04;;;;;;;;;;;;;;;12.73;74.66;95732.16;6207272;28;19972;-62
2023/06/25 14:25:05;;;;;;;;;;;;;;;12.52;74.81;95735.78;6224571;28;19920;-62
2023/06/25 14:28:09;;;;;;;;;;;;;;;12.49;75.07;95722.88;6224128;28;19925;-63
2023/06/25 14:31:11;;;;;;;;;;;;;;;12.49;75.35;95717.59;6208867;28;19925;-63
2023/06/25 14:34:12;;;;;;;;;;;;;;;12.56;75.65;95718.69;6215172;28;19956;-63
2023/06/25 14:37:15;;;;;;;;;;;;;;;12.64;76.47;95714.53;6223876;28;19921;-63
2023/06/25 14:40:16;;;;;;;;;;;;;;;12.62;76.72;95713.81;6237662;28;20454;-63
2023/06/25 14:43:18;;;;;;;;;;;;;;;12.62;76.85;95719.94;6241843;28;20404;-64
2023/06/25 14:46:21;;;;;;;;;;;;;;;12.42;77.14;95705.91;6245100;28;19921;-66
2023/06/25 14:49:25;;;;;;;;;;;;;;;12.51;77.80;95709.50;6235268;28;19928;-63
2023/06/25 14:52:27;;;;;;;;;;;;;;;12.44;78.03;95717.16;6238449;28;20437;-62
2023/06/25 14:55:29;;;;;;;;;;;;;;;12.43;78.56;95714.69;6239512;28;19932;-61
2023/06/25 14:58:30;;;;;;;;;;;;;;;12.24;78.87;95712.88;6238640;28;20573;-62
2023/06/25 15:01:33;;;;;;;;;;;;;;;12.27;79.24;95704.69;6235387;28;19921;-63
2023/06/25 15:04:35;;;;;;;;;;;;;;;12.12;79.32;95699.81;6243709;28;19943;-63
2023/06/25 15:07:36;;;;;;;;;;;;;;;12.01;79.69;95697.31;6232986;28;19925;-62
2023/06/25 15:10:37;;;;;;;;;;;;;;;12.08;80.26;95693.13;6235264;28;20052;-62
2023/06/25 15:13:44;;;;;;;;;;;;;;;12.03;80.57;95682.19;6234538;28;19920;-61
2023/06/25 15:16:47;;;;;;;;;;;;;;;11.80;80.46;95686.00;6237448;28;19924;-63
2023/06/25 15:19:51;;;;;;;;;;;;;;;11.86;80.88;95680.19;6238092;28;19921;-69
2023/06/25 15:22:52;;;;;;;;;;;;;;;11.86;81.19;95685.47;6234738;28;19975;-68
2023/06/25 15:25:53;;;;;;;;;;;;;;;11.79;81.32;95679.06;6245404;28;20410;-65
2023/06/25 15:28:54;;;;;;;;;;;;;;;11.80;81.55;95675.44;6240529;28;20006;-64
2023/06/25 15:31:59;;;;;;;;;;;;;;;11.87;82.07;95677.44;6239910;28;19921;-71
2023/06/25 15:35:03;;;;;;;;;;;;;;;11.76;81.92;95674.06;6237348;28;19928;-66
2023/06/25 15:38:09;;;;;;;;;;;;;;;11.84;81.92;95668.94;6211836;28;20016;-69
2023/06/25 15:41:13;;;;;;;;;;;;;;;11.87;82.44;95660.81;6215177;28;19924;-66
2023/06/25 15:44:16;;;;;;;;;;;;;;;11.78;82.34;95661.59;6214058;28;19927;-65
2023/06/25 15:47:18;;;;;;;;;;;;;;;11.80;82.52;95659.63;6195154;28;19921;-68
2023/06/25 15:50:19;;;;;;;;;;;;;;;11.60;82.62;95664.88;6214991;28;20532;-69
2023/06/25 15:53:23;;;;;;;;;;;;;;;11.68;83.45;95659.75;6213267;28;19921;-68